createdAt,value
2019-04-03T00:00:04.773Z,98608.09
2019-04-03T00:02:34.853Z,98606.82
2019-04-03T00:05:05.131Z,98607.06
2019-04-03T00:07:35.897Z,98612.33
2019-04-03T00:10:06.634Z,98600.59
2019-04-03T00:12:36.558Z,98605.13
2019-04-03T00:15:06.341Z,98607.05
2019-04-03T00:17:35.723Z,98608.36
2019-04-03T00:20:05.559Z,98590.85
2019-04-03T00:22:34.797Z,98587.40
2019-04-03T00:25:03.989Z,98582.27
2019-04-03T00:27:33.174Z,98589.23
2019-04-03T00:30:02.280Z,98583.19
2019-04-03T00:32:31.428Z,98582.84
2019-04-03T00:35:00.571Z,98588.44
2019-04-03T00:37:29.669Z,98579.30
2019-04-03T00:39:58.786Z,98574.95
2019-04-03T00:42:27.895Z,98576.67
2019-04-03T00:44:57.229Z,98572.80
2019-04-03T00:47:26.373Z,98573.64
2019-04-03T00:49:56.877Z,98574.91
2019-04-03T00:52:27.584Z,98571.49
2019-04-03T00:54:57.196Z,98577.63
2019-04-03T00:57:26.906Z,98576.27
2019-04-03T00:59:56.984Z,98552.73
2019-04-03T01:02:27.944Z,98566.86
2019-04-03T01:04:58.411Z,98580.23
2019-04-03T01:07:29.310Z,98579.01
2019-04-03T01:09:59.590Z,98582.23
2019-04-03T01:12:30.907Z,98580.05
2019-04-03T01:15:01.618Z,98583.23
2019-04-03T01:17:30.670Z,98591.90
2019-04-03T01:19:59.846Z,98593.38
2019-04-03T01:22:28.913Z,98595.67
2019-04-03T01:24:58.064Z,98590.52
2019-04-03T01:27:27.206Z,98595.48
2019-04-03T01:29:56.352Z,98595.64
2019-04-03T01:32:25.468Z,98598.37
2019-04-03T01:34:54.657Z,98599.49
2019-04-03T01:37:23.863Z,98589.98
2019-04-03T01:39:53.055Z,98595.31
2019-04-03T01:42:22.549Z,98595.31
2019-04-03T01:44:51.941Z,98594.48
2019-04-03T01:47:21.017Z,98592.33
2019-04-03T01:49:50.096Z,98592.84
2019-04-03T01:52:19.182Z,98597.08
2019-04-03T01:54:48.277Z,98601.53
2019-04-03T01:57:17.476Z,98601.09
2019-04-03T01:59:46.602Z,98607.17
2019-04-03T02:02:15.696Z,98593.59
2019-04-03T02:04:44.790Z,98587.83
2019-04-03T02:07:14.864Z,98583.57
2019-04-03T02:09:46.142Z,98583.02
2019-04-03T02:12:15.123Z,98583.86
2019-04-03T02:14:44.282Z,98580.32
2019-04-03T02:17:13.392Z,98583.02
2019-04-03T02:19:42.577Z,98584.25
2019-04-03T02:22:11.671Z,98578.20
2019-04-03T02:24:41.037Z,98571.25
2019-04-03T02:27:10.206Z,98568.63
2019-04-03T02:29:39.863Z,98568.31
2019-04-03T02:32:09.722Z,98567.98
2019-04-03T02:34:38.965Z,98569.34
2019-04-03T02:37:08.090Z,98569.78
2019-04-03T02:39:37.215Z,98572.88
2019-04-03T02:42:08.870Z,98573.23
2019-04-03T02:44:37.292Z,98568.83
2019-04-03T02:47:06.417Z,98566.67
2019-04-03T02:49:35.551Z,98557.49
2019-04-03T02:52:04.708Z,98563.18
2019-04-03T02:54:36.451Z,98557.42
2019-04-03T02:57:05.770Z,98556.07
2019-04-03T02:59:34.838Z,98562.19
2019-04-03T03:02:03.944Z,98560.05
2019-04-03T03:04:33.064Z,98561.36
2019-04-03T03:07:04.479Z,98565.80
2019-04-03T03:09:33.871Z,98564.85
2019-04-03T03:12:03.050Z,98554.75
2019-04-03T03:14:32.213Z,98540.84
2019-04-03T03:17:01.360Z,98548.24
2019-04-03T03:19:33.272Z,98550.47
2019-04-03T03:22:01.463Z,98560.05
2019-04-03T03:24:30.857Z,98558.73
2019-04-03T03:26:59.993Z,98553.56
2019-04-03T03:29:29.394Z,98551.42
2019-04-03T03:32:10.797Z,98547.16
2019-04-03T03:34:47.647Z,98550.69
2019-04-03T03:37:03.141Z,98551.69
2019-04-03T03:39:31.128Z,98555.62
2019-04-03T03:42:00.587Z,98551.88
2019-04-03T03:44:29.754Z,98555.92
2019-04-03T03:47:01.094Z,98562.08
2019-04-03T03:49:29.904Z,98559.89
2019-04-03T03:52:02.742Z,98557.34
2019-04-03T03:54:29.885Z,98546.05
2019-04-03T03:56:59.142Z,98545.73
2019-04-03T03:59:28.379Z,98548.87
2019-04-03T04:01:57.410Z,98549.42
2019-04-03T04:04:26.526Z,98542.42
2019-04-03T04:06:55.595Z,98534.71
2019-04-03T04:09:24.760Z,98536.46
2019-04-03T04:11:53.845Z,98528.20
2019-04-03T04:14:23.504Z,98527.76
2019-04-03T04:16:53.518Z,98517.67
2019-04-03T04:19:22.913Z,98520.73
2019-04-03T04:21:52.097Z,98522.00
2019-04-03T04:24:21.280Z,98512.36
2019-04-03T04:26:50.621Z,98507.19
2019-04-03T04:29:19.815Z,98504.17
2019-04-03T04:31:48.908Z,98510.72
2019-04-03T04:34:18.845Z,98509.84
2019-04-03T04:36:48.961Z,98517.20
2019-04-03T04:39:18.338Z,98512.43
2019-04-03T04:41:47.442Z,98518.47
2019-04-03T04:44:16.820Z,98510.14
2019-04-03T04:46:46.029Z,98507.95
2019-04-03T04:49:15.176Z,98516.21
2019-04-03T04:51:44.314Z,98521.38
2019-04-03T04:54:13.460Z,98522.21
2019-04-03T04:56:42.830Z,98521.78
2019-04-03T04:59:13.572Z,98521.34
2019-04-03T05:01:43.164Z,98524.91
2019-04-03T05:04:15.037Z,98526.62
2019-04-03T05:06:43.090Z,98519.67
2019-04-03T05:09:12.443Z,98514.90
2019-04-03T05:11:41.533Z,98514.42
2019-04-03T05:14:11.209Z,98509.19
2019-04-03T05:16:40.400Z,98509.59
2019-04-03T05:19:15.839Z,98520.07
2019-04-03T05:21:40.904Z,98518.36
2019-04-03T05:24:13.611Z,98511.77
2019-04-03T05:26:41.792Z,98514.39
2019-04-03T05:29:11.023Z,98511.45
2019-04-03T05:31:40.616Z,98525.47
2019-04-03T05:34:13.698Z,98528.59
2019-04-03T05:36:43.196Z,98523.86
2019-04-03T05:39:12.473Z,98528.70
2019-04-03T05:41:42.180Z,98529.14
2019-04-03T05:44:11.334Z,98526.63
2019-04-03T05:46:40.489Z,98527.44
2019-04-03T05:49:10.993Z,98522.19
2019-04-03T05:51:40.275Z,98524.77
2019-04-03T05:54:09.504Z,98523.97
2019-04-03T05:56:38.661Z,98532.23
2019-04-03T05:59:07.772Z,98533.98
2019-04-03T06:01:36.904Z,98533.08
2019-04-03T06:04:06.188Z,98539.19
2019-04-03T06:06:35.268Z,98539.19
2019-04-03T06:09:05.834Z,98538.32
2019-04-03T06:11:35.065Z,98536.64
2019-04-03T06:14:04.155Z,98535.34
2019-04-03T06:16:33.311Z,98534.89
2019-04-03T06:19:02.412Z,98539.27
2019-04-03T06:21:31.587Z,98537.12
2019-04-03T06:24:00.708Z,98538.42
2019-04-03T06:26:29.882Z,98533.62
2019-04-03T06:28:59.063Z,98537.55
2019-04-03T06:31:28.899Z,98538.47
2019-04-03T06:33:58.141Z,98535.91
2019-04-03T06:36:27.291Z,98538.53
2019-04-03T06:38:59.237Z,98535.05
2019-04-03T06:41:28.375Z,98541.59
2019-04-03T06:43:59.207Z,98550.77
2019-04-03T06:46:29.802Z,98551.72
2019-04-03T06:48:59.166Z,98556.12
2019-04-03T06:51:28.324Z,98550.04
2019-04-03T06:53:59.553Z,98549.97
2019-04-03T06:56:28.344Z,98558.59
2019-04-03T06:58:57.406Z,98551.28
2019-04-03T07:01:26.556Z,98558.63
2019-04-03T07:03:55.628Z,98554.59
2019-04-03T07:06:24.794Z,98558.38
2019-04-03T07:08:53.954Z,98559.21
2019-04-03T07:11:24.103Z,98556.16
2019-04-03T07:13:54.357Z,98557.43
2019-04-03T07:16:23.891Z,98558.88
2019-04-03T07:18:53.010Z,98552.33
2019-04-03T07:21:22.828Z,98555.28
2019-04-03T07:23:52.689Z,98557.32
2019-04-03T07:26:21.907Z,98564.30
2019-04-03T07:28:51.097Z,98563.03
2019-04-03T07:31:23.236Z,98563.03
2019-04-03T07:33:51.209Z,98562.56
2019-04-03T07:36:20.399Z,98562.88
2019-04-03T07:38:49.876Z,98567.51
2019-04-03T07:41:19.078Z,98567.83
2019-04-03T07:43:48.434Z,98573.00
2019-04-03T07:46:17.582Z,98570.23
2019-04-03T07:48:46.876Z,98568.77
2019-04-03T07:51:16.136Z,98570.16
2019-04-03T07:53:45.472Z,98564.84
2019-04-03T07:56:14.622Z,98566.83
2019-04-03T07:58:43.837Z,98565.25
2019-04-03T08:01:12.973Z,98559.84
2019-04-03T08:03:42.089Z,98557.11
2019-04-03T08:06:11.216Z,98546.93
2019-04-03T08:08:40.359Z,98548.33
2019-04-03T08:11:09.648Z,98557.42
2019-04-03T08:13:39.183Z,98552.58
2019-04-03T08:16:10.024Z,98547.26
2019-04-03T08:18:39.317Z,98550.64
2019-04-03T08:21:08.977Z,98555.80
2019-04-03T08:23:38.233Z,98546.62
2019-04-03T08:26:07.421Z,98539.23
2019-04-03T08:28:36.630Z,98531.19
2019-04-03T08:31:05.702Z,98541.84
2019-04-03T08:33:35.391Z,98544.91
2019-04-03T08:36:06.664Z,98547.93
2019-04-03T08:38:35.466Z,98550.23
2019-04-03T08:41:04.638Z,98549.00
2019-04-03T08:43:33.747Z,98548.05
2019-04-03T08:46:03.084Z,98539.97
2019-04-03T08:48:32.217Z,98529.64
2019-04-03T08:51:03.015Z,98531.31
2019-04-03T08:53:32.157Z,98530.80
2019-04-03T08:56:01.887Z,98528.38
2019-04-03T08:58:31.131Z,98520.34
2019-04-03T09:01:01.894Z,98523.95
2019-04-03T09:03:31.325Z,98518.34
2019-04-03T09:06:00.447Z,98512.73
2019-04-03T09:08:29.599Z,98509.95
2019-04-03T09:10:58.784Z,98519.94
2019-04-03T09:13:27.995Z,98512.98
2019-04-03T09:15:59.352Z,98514.14
2019-04-03T09:18:30.104Z,98521.14
2019-04-03T09:20:59.115Z,98525.81
2019-04-03T09:23:28.367Z,98529.70
2019-04-03T09:25:57.639Z,98533.24
2019-04-03T09:28:26.796Z,98536.27
2019-04-03T09:30:56.208Z,98534.62
2019-04-03T09:33:26.982Z,98539.53
2019-04-03T09:35:58.962Z,98541.69
2019-04-03T09:38:27.616Z,98539.39
2019-04-03T09:40:56.795Z,98543.50
2019-04-03T09:43:25.948Z,98545.12
2019-04-03T09:45:55.125Z,98552.73
2019-04-03T09:48:24.282Z,98550.34
2019-04-03T09:50:53.416Z,98549.80
2019-04-03T09:53:26.355Z,98552.73
2019-04-03T09:55:55.869Z,98537.00
2019-04-03T09:58:25.229Z,98540.44
2019-04-03T10:00:54.462Z,98536.27
2019-04-03T10:03:23.962Z,98545.05
2019-04-03T10:05:53.165Z,98544.98
2019-04-03T10:08:22.260Z,98546.48
2019-04-03T10:10:51.429Z,98540.39
2019-04-03T10:13:20.606Z,98529.65
2019-04-03T10:15:49.763Z,98528.52
2019-04-03T10:18:21.813Z,98520.42
2019-04-03T10:20:49.912Z,98517.48
2019-04-03T10:23:19.060Z,98515.52
2019-04-03T10:25:48.316Z,98513.53
2019-04-03T10:28:17.559Z,98509.96
2019-04-03T10:30:46.810Z,98502.33
2019-04-03T10:33:15.987Z,98497.82
2019-04-03T10:35:47.341Z,98498.27
2019-04-03T10:38:17.948Z,98496.69
2019-04-03T10:40:46.899Z,98497.99
2019-04-03T10:43:16.073Z,98493.41
2019-04-03T10:45:45.313Z,98495.45
2019-04-03T10:48:14.462Z,98486.83
2019-04-03T10:50:43.717Z,98479.70
2019-04-03T10:53:12.830Z,98493.13
2019-04-03T10:55:41.981Z,98493.97
2019-04-03T10:58:11.082Z,98501.48
2019-04-03T11:00:40.311Z,98502.20
2019-04-03T11:03:09.529Z,98495.80
2019-04-03T11:05:39.393Z,98504.67
2019-04-03T11:08:08.605Z,98494.80
2019-04-03T11:10:37.780Z,98480.07
2019-04-03T11:13:06.885Z,98477.05
2019-04-03T11:15:36.112Z,98464.71
2019-04-03T11:18:05.249Z,98453.40
2019-04-03T11:20:36.077Z,98457.84
2019-04-03T11:23:07.691Z,98449.19
2019-04-03T11:25:36.265Z,98441.93
2019-04-03T11:28:06.353Z,98447.21
2019-04-03T11:30:35.943Z,98453.98
2019-04-03T11:33:05.080Z,98454.89
2019-04-03T11:35:34.249Z,98467.66
2019-04-03T11:38:12.636Z,98451.61
2019-04-03T11:40:34.649Z,98454.10
2019-04-03T11:43:03.909Z,98470.24
2019-04-03T11:45:33.768Z,98453.74
2019-04-03T11:48:02.910Z,98450.03
2019-04-03T11:50:32.373Z,98458.95
2019-04-03T11:53:04.879Z,98463.32
2019-04-03T11:55:32.438Z,98453.05
2019-04-03T11:58:01.558Z,98458.38
2019-04-03T12:00:35.220Z,98443.56
2019-04-03T12:03:04.737Z,98431.92
2019-04-03T12:05:33.912Z,98428.61
2019-04-03T12:08:03.118Z,98416.37
2019-04-03T12:10:32.801Z,98407.99
2019-04-03T12:13:04.317Z,98402.78
2019-04-03T12:15:34.762Z,98402.16
2019-04-03T12:18:03.992Z,98414.67
2019-04-03T12:20:33.114Z,98408.92
2019-04-03T12:23:02.280Z,98406.28
2019-04-03T12:25:34.174Z,98422.80
2019-04-03T12:28:02.661Z,98423.98
2019-04-03T12:30:31.895Z,98425.19
2019-04-03T12:33:01.086Z,98443.94
2019-04-03T12:35:30.259Z,98432.71
2019-04-03T12:37:59.402Z,98437.98
2019-04-03T12:40:30.283Z,98443.50
2019-04-03T12:42:59.981Z,98436.30
2019-04-03T12:45:29.312Z,98435.42
2019-04-03T12:47:58.922Z,98441.38
2019-04-03T12:50:28.767Z,98430.91
2019-04-03T12:52:58.276Z,98431.63
2019-04-03T12:55:27.328Z,98430.84
2019-04-03T12:57:56.498Z,98431.17
2019-04-03T13:00:25.892Z,98434.11
2019-04-03T13:02:55.400Z,98430.22
2019-04-03T13:05:24.502Z,98429.47
2019-04-03T13:07:53.707Z,98413.10
2019-04-03T13:10:22.777Z,98414.04
2019-04-03T13:12:54.608Z,98405.39
2019-04-03T13:15:22.915Z,98394.24
2019-04-03T13:17:52.208Z,98385.89
2019-04-03T13:20:21.584Z,98384.70
2019-04-03T13:22:50.809Z,98367.59
2019-04-03T13:25:21.439Z,98370.30
2019-04-03T13:27:50.958Z,98365.17
2019-04-03T13:30:20.943Z,98356.41
2019-04-03T13:32:58.698Z,98358.33
2019-04-03T13:35:21.926Z,98360.83
2019-04-03T13:37:53.106Z,98364.69
2019-04-03T13:40:22.688Z,98356.96
2019-04-03T13:42:51.930Z,98343.98
2019-04-03T13:45:21.484Z,98337.46
2019-04-03T13:47:51.011Z,98349.64
2019-04-03T13:50:22.294Z,98347.56
2019-04-03T13:52:51.390Z,98346.86
2019-04-03T13:55:20.932Z,98343.12
2019-04-03T13:57:50.849Z,98351.52
2019-04-03T14:00:23.005Z,98349.56
2019-04-03T14:02:51.626Z,98366.03
2019-04-03T14:05:20.953Z,98365.89
2019-04-03T14:07:51.404Z,98368.28
2019-04-03T14:10:20.904Z,98366.70
2019-04-03T14:12:50.135Z,98367.77
2019-04-03T14:15:21.087Z,98357.29
2019-04-03T14:17:56.452Z,98343.41
2019-04-03T14:20:23.760Z,98350.22
2019-04-03T14:22:52.261Z,98346.66
2019-04-03T14:25:23.753Z,98341.09
2019-04-03T14:27:52.593Z,98329.84
2019-04-03T14:30:21.902Z,98331.23
2019-04-03T14:32:52.836Z,98336.44
2019-04-03T14:35:45.190Z,98337.37
2019-04-03T14:37:53.230Z,98341.16
2019-04-03T14:40:22.536Z,98338.52
2019-04-03T14:42:52.171Z,98341.67
2019-04-03T14:45:22.433Z,98357.41
2019-04-03T14:47:54.212Z,98356.97
2019-04-03T14:50:26.406Z,98361.02
2019-04-03T14:52:55.665Z,98368.27
2019-04-03T14:55:26.660Z,98355.89
2019-04-03T14:57:56.354Z,98358.23
2019-04-03T15:00:30.323Z,98357.93
2019-04-03T15:02:58.605Z,98352.88
2019-04-03T15:05:28.742Z,98348.06
2019-04-03T15:07:58.731Z,98332.81
2019-04-03T15:10:30.638Z,98338.66
2019-04-03T15:13:00.563Z,98334.92
2019-04-03T15:15:30.488Z,98338.69
2019-04-03T15:18:02.278Z,98327.18
2019-04-03T15:20:33.450Z,98329.81
2019-04-03T15:23:05.548Z,98333.66
2019-04-03T15:25:41.279Z,98338.29
2019-04-03T15:28:10.363Z,98332.55
2019-04-03T15:30:41.642Z,98338.69
2019-04-03T15:33:10.661Z,98343.48
2019-04-03T15:35:40.209Z,98343.28
2019-04-03T15:38:12.520Z,98341.97
2019-04-03T15:41:09.119Z,98351.31
2019-04-03T15:43:38.275Z,98350.53
2019-04-03T15:46:07.552Z,98366.50
2019-04-03T15:48:39.914Z,98358.81
2019-04-03T15:51:08.758Z,98356.05
2019-04-03T15:53:38.195Z,98355.13
2019-04-03T15:56:12.986Z,98353.03
2019-04-03T15:58:41.139Z,98354.34
2019-04-03T16:01:10.349Z,98353.67
2019-04-03T16:03:39.899Z,98351.70
2019-04-03T16:06:09.720Z,98349.47
2019-04-03T16:08:39.079Z,98343.83
2019-04-03T16:11:09.601Z,98338.23
2019-04-03T16:13:39.723Z,98333.12
2019-04-03T16:16:09.464Z,98339.79
2019-04-03T16:18:39.111Z,98322.07
2019-04-03T16:21:08.478Z,98327.04
2019-04-03T16:23:38.674Z,98326.05
2019-04-03T16:26:07.964Z,98316.52
2019-04-03T16:28:37.217Z,98327.84
2019-04-03T16:31:06.857Z,98336.41
2019-04-03T16:33:46.657Z,98334.89
2019-04-03T16:36:17.064Z,98333.87
2019-04-03T16:38:46.896Z,98334.63
2019-04-03T16:41:19.768Z,98333.81
2019-04-03T16:43:49.140Z,98333.78
2019-04-03T16:46:18.735Z,98328.89
2019-04-03T16:48:49.853Z,98327.02
2019-04-03T16:51:19.420Z,98326.41
2019-04-03T16:53:49.446Z,98321.03
2019-04-03T16:56:19.758Z,98310.45
2019-04-03T16:58:49.275Z,98196.06
2019-04-03T17:01:19.916Z,98304.05
2019-04-03T17:03:49.708Z,98304.92
2019-04-03T17:06:19.180Z,98306.18
2019-04-03T17:08:48.835Z,98309.64
2019-04-03T17:11:18.234Z,98326.16
2019-04-03T17:13:47.727Z,98336.77
2019-04-03T17:16:17.714Z,98329.47
2019-04-03T17:18:47.951Z,98324.74
2019-04-03T17:21:19.485Z,98330.03
2019-04-03T17:23:50.144Z,98330.90
2019-04-03T17:26:19.576Z,98337.14
2019-04-03T17:29:00.452Z,98336.86
2019-04-03T17:31:22.353Z,98335.67
2019-04-03T17:33:50.835Z,98333.89
2019-04-03T17:36:20.357Z,98339.69
2019-04-03T17:38:49.560Z,98331.16
2019-04-03T17:41:18.862Z,98333.26
2019-04-03T17:43:48.186Z,98328.02
2019-04-03T17:46:17.785Z,98325.52
2019-04-03T17:48:47.878Z,98314.81
2019-04-03T17:51:17.121Z,98309.37
2019-04-03T17:53:46.367Z,98303.73
2019-04-03T17:56:15.565Z,98312.11
2019-04-03T17:58:47.625Z,98328.43
2019-04-03T18:01:15.710Z,98346.08
2019-04-03T18:03:44.947Z,98381.48
2019-04-03T18:06:14.363Z,98381.12
2019-04-03T18:08:44.104Z,98375.70
2019-04-03T18:11:13.863Z,98371.78
2019-04-03T18:13:43.109Z,98375.03
2019-04-03T18:16:13.434Z,98361.80
2019-04-03T18:18:42.795Z,98353.84
2019-04-03T18:21:13.107Z,98359.62
2019-04-03T18:23:42.398Z,98371.03
2019-04-03T18:26:11.582Z,98353.33
2019-04-03T18:28:40.827Z,98341.05
2019-04-03T18:31:10.121Z,98334.69
2019-04-03T18:33:39.312Z,98333.34
2019-04-03T18:36:08.517Z,98345.77
2019-04-03T18:38:38.571Z,98357.98
2019-04-03T18:41:08.316Z,98348.56
2019-04-03T18:43:37.520Z,98339.11
2019-04-03T18:46:06.756Z,98342.13
2019-04-03T18:48:35.945Z,98360.48
2019-04-03T18:51:06.495Z,98362.73
2019-04-03T18:53:35.741Z,98366.33
2019-04-03T18:56:05.300Z,98378.53
2019-04-03T18:58:34.480Z,98378.67
2019-04-03T19:01:05.471Z,98389.73
2019-04-03T19:03:35.015Z,98392.76
2019-04-03T19:06:05.708Z,98390.75
2019-04-03T19:08:34.951Z,98386.35
2019-04-03T19:11:09.364Z,98388.23
2019-04-03T19:13:35.322Z,98397.42
2019-04-03T19:16:04.479Z,98393.36
2019-04-03T19:18:35.086Z,98382.43
2019-04-03T19:21:04.706Z,98400.23
2019-04-03T19:23:34.181Z,98388.63
2019-04-03T19:26:03.669Z,98392.05
2019-04-03T19:28:34.616Z,98402.95
2019-04-03T19:31:04.223Z,98398.16
2019-04-03T19:33:33.475Z,98386.39
2019-04-03T19:36:02.800Z,98380.42
2019-04-03T19:38:32.134Z,98373.75
2019-04-03T19:41:01.835Z,98378.67
2019-04-03T19:43:31.005Z,98383.91
2019-04-03T19:46:00.408Z,98397.42
2019-04-03T19:48:29.659Z,98404.19
2019-04-03T19:50:58.866Z,98395.10
2019-04-03T19:53:28.198Z,98394.53
2019-04-03T19:55:57.381Z,98391.22
2019-04-03T19:58:28.934Z,98390.71
2019-04-03T20:00:57.450Z,98387.29
2019-04-03T20:03:26.644Z,98396.04
2019-04-03T20:05:55.906Z,98407.00
2019-04-03T20:08:25.139Z,98413.03
2019-04-03T20:10:54.385Z,98411.80
2019-04-03T20:13:27.844Z,98411.89
2019-04-03T20:15:54.904Z,98412.27
2019-04-03T20:18:25.923Z,98408.03
2019-04-03T20:20:55.090Z,98405.42
2019-04-03T20:23:25.349Z,98397.58
2019-04-03T20:25:54.646Z,98386.22
2019-04-03T20:28:24.402Z,98378.80
2019-04-03T20:30:53.815Z,98373.67
2019-04-03T20:33:23.054Z,98357.09
2019-04-03T20:35:52.357Z,98357.48
2019-04-03T20:38:21.780Z,98357.05
2019-04-03T20:40:50.957Z,98352.22
2019-04-03T20:43:20.205Z,98363.52
2019-04-03T20:45:50.331Z,98349.71
2019-04-03T20:48:19.597Z,98351.89
2019-04-03T20:50:48.940Z,98354.64
2019-04-03T20:53:18.801Z,98366.77
2019-04-03T20:55:48.063Z,98372.66
2019-04-03T20:58:17.333Z,98376.98
2019-04-03T21:00:49.269Z,98373.97
2019-04-03T21:03:17.598Z,98373.26
2019-04-03T21:05:48.869Z,98371.95
2019-04-03T21:08:17.807Z,98373.75
2019-04-03T21:10:47.017Z,98374.19
2019-04-03T21:13:16.142Z,98351.57
2019-04-03T21:15:46.045Z,98342.42
2019-04-03T21:18:15.460Z,98356.83
2019-04-03T21:20:44.785Z,98336.42
2019-04-03T21:23:14.053Z,98324.77
2019-04-03T21:25:43.211Z,98320.84
2019-04-03T21:28:12.553Z,98316.05
2019-04-03T21:30:41.781Z,98313.84
2019-04-03T21:33:11.027Z,98321.75
2019-04-03T21:35:40.303Z,98329.74
2019-04-03T21:38:10.849Z,98334.20
2019-04-03T21:40:40.763Z,98330.28
2019-04-03T21:43:10.374Z,98319.14
2019-04-03T21:45:39.531Z,98320.02
2019-04-03T21:48:08.852Z,98330.87
2019-04-03T21:50:38.087Z,98319.95
2019-04-03T21:53:07.347Z,98309.87
2019-04-03T21:55:36.636Z,98310.31
2019-04-03T21:58:06.940Z,98326.08
2019-04-03T22:01:18.059Z,98328.69
2019-04-03T22:03:50.620Z,98327.39
2019-04-03T22:06:18.702Z,98341.84
2019-04-03T22:08:47.956Z,98327.30
2019-04-03T22:11:16.999Z,98335.19
2019-04-03T22:13:46.223Z,98340.36
2019-04-03T22:16:15.398Z,98346.48
2019-04-03T22:18:45.356Z,98335.22
2019-04-03T22:21:14.527Z,98333.88
2019-04-03T22:23:44.128Z,98341.38
2019-04-03T22:26:13.282Z,98356.62
2019-04-03T22:28:44.150Z,98373.23
2019-04-03T22:31:13.269Z,98380.34
2019-04-03T22:33:42.436Z,98386.41
2019-04-03T22:36:11.545Z,98392.97
2019-04-03T22:38:40.703Z,98371.64
2019-04-03T22:41:12.244Z,98360.41
2019-04-03T22:43:40.864Z,98355.56
2019-04-03T22:46:09.978Z,98354.16
2019-04-03T22:48:39.166Z,98355.94
2019-04-03T22:51:09.098Z,98354.41
2019-04-03T22:53:39.893Z,98355.80
2019-04-03T22:56:09.151Z,98352.66
2019-04-03T22:58:38.333Z,98356.61
2019-04-03T23:01:07.442Z,98361.11
2019-04-03T23:03:36.591Z,98363.63
2019-04-03T23:06:05.735Z,98357.51
2019-04-03T23:08:34.910Z,98355.28
2019-04-03T23:11:05.253Z,98360.50
2019-04-03T23:13:35.766Z,98364.82
2019-04-03T23:16:05.266Z,98348.38
2019-04-03T23:18:34.660Z,98340.91
2019-04-03T23:21:03.746Z,98337.43
2019-04-03T23:23:32.900Z,98332.61
2019-04-03T23:26:01.997Z,98312.68
2019-04-03T23:28:33.753Z,98307.02
2019-04-03T23:31:02.030Z,98309.72
2019-04-03T23:33:31.181Z,98311.84
2019-04-03T23:36:00.394Z,98304.91
2019-04-03T23:38:29.593Z,98284.95
2019-04-03T23:40:58.758Z,98279.32
2019-04-03T23:43:27.882Z,98292.88
2019-04-03T23:45:57.044Z,98303.84
2019-04-03T23:48:26.180Z,98299.99
2019-04-03T23:50:55.314Z,98287.84
2019-04-03T23:53:24.402Z,98273.41
2019-04-03T23:55:53.606Z,98280.81
2019-04-03T23:58:22.720Z,98278.20
